Share

Guernsey, WY

RAWS CASPER PORTABLE WY US (MTS954) Elev 4785 ft | 42.39 °N, 104.81 °W | Change Station

Current weather conditions updated 45 minutes ago

Clear
Clear
58 °F
Feels Like 58 °F
N
1
Wind Variable Wind from NNW
Gusts 13.0 mph
Sunrise 6:13 AM
Sunset 7:44 PM
Moon Waning Gibbous

Tomorrow is forecast to be Much Cooler than today.

Pressure 29.73 in
Visibility 10.0 miles
Clouds Clear
Dew Point 33 °F
Humidity 39%
Rainfall 0.00 in
Snow Depth Not available.
UV 0 out of 16
Pollen 11.30 out of 12
Air Quality Not available.
Flu Activity Sporadic
METAR KTOR 190453Z AUTO 18003KT 10SM CLR 16/02 A2983 RMK AO2 SLP067 T01560017

More Conditions Fewer Conditions

Pressure 29.73 in
Visibility 10.0 miles
Clouds Clear
Dew Point 33 °F
Humidity 39%
Rainfall 0.00 in
Snow Depth Not available.
UV 0 out of 16
Pollen 11.30 out of 12
Air Quality Not available.
Flu Activity Sporadic
METAR KTOR 190453Z AUTO 18003KT 10SM CLR 16/02 A2983 RMK AO2 SLP067 T01560017

More Conditions Fewer Conditions

10-Day Weather Forecast

Almanac

Astronomy

Apr. 18, 2014 Rise Set
Actual Time 6:13 AM MDT 7:44 PM MDT
Civil Twilight 5:44 AM MDT 8:13 PM MDT
Nautical Twilight 5:08 AM MDT 8:49 PM MDT
Astronomical Twilight 4:30 AM MDT 9:26 PM MDT
Moon 11:34 PM MDT (4/18) 8:35 AM MDT (4/18)
Length of Visible Light 14h 29m
Length of Day
13h 30m
Tomorrow will be 2m 42s longer.
Waning Gibbous, 82% of the Moon is Illuminated
Apr 19
Waning Gibbous
Apr 22
Last Quarter
Apr 29
New
May 6
First Quarter
May 14
Full

Yesterday's Extremes

State Highs State Lows

Community

  • Sunset Silhouettes
    Sunset Silhouettes
  • FL sunset Perico Isle
    FL sunset Perico Isle
  • Cloudy spring view
    Cloudy spring view
  • Old barn
    Old barn
  • What's for Lunch?
    What's for Lunch?

WunderPhotos

Upload Photos

1,702,650 photos uploaded!

WunderBlogs® & News

Nearby

Snow Depth

Station Depth Elevation
Windy Peak 26 in 7900 ft
Laprele Creek 26 in 8375 ft
Reno Hill 58 in 8500 ft
Crow Creek 15 in 8330 ft
Casper Mountain 51 in 7850 ft

Coastal Water Temperatures

Place Temperature
No Stations Reporting

Earthquake Activity

City Distance Mag. Time & Date
No recent earthquake activity has been reported nearby.
Minimum magnitude displayed is 2.5.

Nearby Weather Stations

Station Location Temp. Dew Point Humidity Wind Precip. Elev Updated Type
HADS WHAHLEN DIVERSION DAM WEATHER ST WY, Hartville, WY 57 °F - - West  at  4 mph 0.00 in / hr 4278 ft 10:15 PM MDT MADIS
RAWS CASPER PORTABLE WY, Hartville, WY 58 °F 33 °F 39% NNW  at  1 mph 0.00 in / hr 4785 ft 11:01 PM MDT MADIS

Show More Stations Show Fewer Stations

What do you think?

We're not finished. Please let us know what you like, what you don't like, and what you are still missing.